Skip Navigation LinksHome page > Weather > Current weather Skip Navigation Links

Current Weather

Jakutsk, Russia

For information only: do not use for flight planning or navigation.
Latest weather
Observation time Thursday, July 2, 2015 1:00 AM JST
Local time Thursday, July 2, 2015 1:39 AM JST
Flight conditions Visual Meteorological Conditions
Winds
Wind speed calm
Visibility 6.2 mi.
Sky condition
Ceiling unlimited
Sky clear
Temperature 54°F
Dewpoint 50°F
Altimeter 29.62 in.Hg
Precipitation
QF 1:23 PM
Derived measurements
Relative humidity 88%
Density altitude 503 ft.
Remarks
Ceiling and visibility OK.
No significant changes expected in the next two hours.
METAR UEEE 011600Z 00000MPS CAVOK 12/10 Q1003 R23L/09//60 NOSIG RMK QFE743

Settings

Location code

InnerDrive.Weather 4.0.5567.0 Release CLR 4.0.30319.34014
Copyright ©2015 Inner Drive Technology. All rights reserved. Portions Copyright ©1986-2015 David Braverman.

Find weather

Site navigation


Skip Navigation Links

Place info

Page info

PayPal - The safer, easier way to pay online!

Return home.

Copyright ©2015 Inner Drive Technology. Purveyors of fine, hand-crafted computer software. Page printed 2015-07-01T16:39:48 UTC.